sensor_id;sensor_type;location;lat;lon;timestamp;P1;durP1;ratioP1;P2;durP2;ratioP2
12441;SDS011;6285;48.804;9.220;2023-02-11T00:01:06;43.28;;;27.08;;
12441;SDS011;6285;48.804;9.220;2023-02-11T00:03:34;43.38;;;26.77;;
12441;SDS011;6285;48.804;9.220;2023-02-11T00:06:02;48.05;;;27.63;;
12441;SDS011;6285;48.804;9.220;2023-02-11T00:08:33;45.35;;;27.52;;
12441;SDS011;6285;48.804;9.220;2023-02-11T00:11:00;42.92;;;26.67;;
12441;SDS011;6285;48.804;9.220;2023-02-11T00:13:27;46.45;;;27.50;;
12441;SDS011;6285;48.804;9.220;2023-02-11T00:15:54;43.13;;;26.83;;
12441;SDS011;6285;48.804;9.220;2023-02-11T00:18:23;41.53;;;26.48;;
12441;SDS011;6285;48.804;9.220;2023-02-11T00:20:50;48.70;;;27.13;;
12441;SDS011;6285;48.804;9.220;2023-02-11T00:23:17;41.38;;;25.67;;
12441;SDS011;6285;48.804;9.220;2023-02-11T00:25:44;40.67;;;26.10;;
12441;SDS011;6285;48.804;9.220;2023-02-11T00:28:11;40.85;;;27.23;;
12441;SDS011;6285;48.804;9.220;2023-02-11T00:30:38;47.40;;;28.17;;
12441;SDS011;6285;48.804;9.220;2023-02-11T00:33:05;53.17;;;30.67;;
12441;SDS011;6285;48.804;9.220;2023-02-11T00:35:35;55.20;;;31.33;;
12441;SDS011;6285;48.804;9.220;2023-02-11T00:38:02;45.00;;;28.25;;
12441;SDS011;6285;48.804;9.220;2023-02-11T00:40:29;46.95;;;26.98;;
12441;SDS011;6285;48.804;9.220;2023-02-11T00:42:56;42.90;;;26.17;;
12441;SDS011;6285;48.804;9.220;2023-02-11T00:45:23;45.17;;;26.52;;
12441;SDS011;6285;48.804;9.220;2023-02-11T00:47:50;43.63;;;26.48;;
12441;SDS011;6285;48.804;9.220;2023-02-11T00:50:17;45.88;;;26.55;;
12441;SDS011;6285;48.804;9.220;2023-02-11T00:52:46;45.63;;;27.23;;
12441;SDS011;6285;48.804;9.220;2023-02-11T00:55:13;45.15;;;27.40;;
12441;SDS011;6285;48.804;9.220;2023-02-11T00:57:39;44.53;;;26.95;;
12441;SDS011;6285;48.804;9.220;2023-02-11T01:00:07;42.38;;;26.83;;
12441;SDS011;6285;48.804;9.220;2023-02-11T01:02:35;40.78;;;25.83;;
12441;SDS011;6285;48.804;9.220;2023-02-11T01:05:02;47.33;;;27.35;;
12441;SDS011;6285;48.804;9.220;2023-02-11T01:07:29;50.75;;;27.17;;
12441;SDS011;6285;48.804;9.220;2023-02-11T01:09:57;44.05;;;27.50;;
12441;SDS011;6285;48.804;9.220;2023-02-11T01:12:24;42.47;;;25.33;;
12441;SDS011;6285;48.804;9.220;2023-02-11T01:14:51;42.03;;;26.25;;
12441;SDS011;6285;48.804;9.220;2023-02-11T01:17:18;42.78;;;26.25;;
12441;SDS011;6285;48.804;9.220;2023-02-11T01:19:46;41.13;;;26.15;;
12441;SDS011;6285;48.804;9.220;2023-02-11T01:22:13;42.17;;;26.02;;
12441;SDS011;6285;48.804;9.220;2023-02-11T01:24:39;40.78;;;25.20;;
12441;SDS011;6285;48.804;9.220;2023-02-11T01:27:08;42.47;;;26.33;;
12441;SDS011;6285;48.804;9.220;2023-02-11T01:29:35;41.05;;;26.20;;
12441;SDS011;6285;48.804;9.220;2023-02-11T01:32:01;44.65;;;25.65;;
12441;SDS011;6285;48.804;9.220;2023-02-11T01:34:28;42.20;;;26.05;;
12441;SDS011;6285;48.804;9.220;2023-02-11T01:36:56;42.20;;;26.15;;
12441;SDS011;6285;48.804;9.220;2023-02-11T01:39:23;45.75;;;25.88;;
12441;SDS011;6285;48.804;9.220;2023-02-11T01:41:50;41.35;;;26.05;;
12441;SDS011;6285;48.804;9.220;2023-02-11T01:44:23;41.75;;;26.02;;
12441;SDS011;6285;48.804;9.220;2023-02-11T01:46:50;41.38;;;25.75;;
12441;SDS011;6285;48.804;9.220;2023-02-11T01:49:18;39.92;;;25.88;;
12441;SDS011;6285;48.804;9.220;2023-02-11T01:51:49;37.60;;;24.30;;
12441;SDS011;6285;48.804;9.220;2023-02-11T01:54:17;39.70;;;26.05;;
12441;SDS011;6285;48.804;9.220;2023-02-11T01:57:04;39.78;;;25.88;;
12441;SDS011;6285;48.804;9.220;2023-02-11T01:59:53;39.83;;;26.02;;
12441;SDS011;6285;48.804;9.220;2023-02-11T02:02:24;46.08;;;25.77;;
12441;SDS011;6285;48.804;9.220;2023-02-11T02:04:53;42.28;;;26.60;;
12441;SDS011;6285;48.804;9.220;2023-02-11T02:07:24;39.20;;;25.25;;
12441;SDS011;6285;48.804;9.220;2023-02-11T02:09:57;43.13;;;26.35;;
12441;SDS011;6285;48.804;9.220;2023-02-11T02:12:24;40.22;;;25.00;;
12441;SDS011;6285;48.804;9.220;2023-02-11T02:15:07;44.17;;;25.50;;
12441;SDS011;6285;48.804;9.220;2023-02-11T02:17:36;46.30;;;26.23;;
12441;SDS011;6285;48.804;9.220;2023-02-11T02:20:15;43.08;;;25.85;;
12441;SDS011;6285;48.804;9.220;2023-02-11T02:23:00;43.35;;;26.60;;
12441;SDS011;6285;48.804;9.220;2023-02-11T02:25:34;43.38;;;26.30;;
12441;SDS011;6285;48.804;9.220;2023-02-11T02:28:12;44.55;;;26.48;;
12441;SDS011;6285;48.804;9.220;2023-02-11T02:30:53;39.17;;;24.95;;
12441;SDS011;6285;48.804;9.220;2023-02-11T02:33:29;39.00;;;24.58;;
12441;SDS011;6285;48.804;9.220;2023-02-11T02:36:03;41.90;;;26.42;;
12441;SDS011;6285;48.804;9.220;2023-02-11T02:38:35;41.47;;;25.98;;
12441;SDS011;6285;48.804;9.220;2023-02-11T02:41:05;40.67;;;25.10;;
12441;SDS011;6285;48.804;9.220;2023-02-11T02:43:34;38.88;;;24.90;;
12441;SDS011;6285;48.804;9.220;2023-02-11T02:46:10;40.47;;;25.17;;
12441;SDS011;6285;48.804;9.220;2023-02-11T02:48:38;40.50;;;25.70;;
12441;SDS011;6285;48.804;9.220;2023-02-11T02:51:08;41.28;;;25.77;;
12441;SDS011;6285;48.804;9.220;2023-02-11T02:53:49;40.35;;;24.20;;
12441;SDS011;6285;48.804;9.220;2023-02-11T02:56:21;40.70;;;24.52;;
12441;SDS011;6285;48.804;9.220;2023-02-11T02:58:53;42.15;;;25.63;;
12441;SDS011;6285;48.804;9.220;2023-02-11T03:01:25;37.78;;;24.40;;
12441;SDS011;6285;48.804;9.220;2023-02-11T03:04:02;50.90;;;26.17;;
12441;SDS011;6285;48.804;9.220;2023-02-11T03:06:33;39.63;;;24.73;;
12441;SDS011;6285;48.804;9.220;2023-02-11T03:09:05;39.10;;;25.92;;
12441;SDS011;6285;48.804;9.220;2023-02-11T03:11:33;41.25;;;25.73;;
12441;SDS011;6285;48.804;9.220;2023-02-11T03:14:02;41.17;;;24.95;;
12441;SDS011;6285;48.804;9.220;2023-02-11T03:16:30;37.47;;;25.35;;
12441;SDS011;6285;48.804;9.220;2023-02-11T03:19:04;40.88;;;25.42;;
12441;SDS011;6285;48.804;9.220;2023-02-11T03:21:32;42.72;;;25.95;;
12441;SDS011;6285;48.804;9.220;2023-02-11T03:24:05;39.45;;;25.25;;
12441;SDS011;6285;48.804;9.220;2023-02-11T03:26:33;43.30;;;25.23;;
12441;SDS011;6285;48.804;9.220;2023-02-11T03:29:02;42.10;;;25.50;;
12441;SDS011;6285;48.804;9.220;2023-02-11T03:31:33;44.65;;;25.13;;
12441;SDS011;6285;48.804;9.220;2023-02-11T03:34:06;38.83;;;23.98;;
12441;SDS011;6285;48.804;9.220;2023-02-11T03:36:39;34.75;;;23.27;;
12441;SDS011;6285;48.804;9.220;2023-02-11T03:39:10;36.15;;;23.73;;
12441;SDS011;6285;48.804;9.220;2023-02-11T03:41:39;39.80;;;25.08;;
12441;SDS011;6285;48.804;9.220;2023-02-11T03:44:07;39.83;;;25.83;;
12441;SDS011;6285;48.804;9.220;2023-02-11T03:46:36;40.93;;;25.30;;
12441;SDS011;6285;48.804;9.220;2023-02-11T03:49:07;38.83;;;25.60;;
12441;SDS011;6285;48.804;9.220;2023-02-11T03:51:35;42.17;;;25.33;;
12441;SDS011;6285;48.804;9.220;2023-02-11T03:54:05;39.55;;;24.13;;
12441;SDS011;6285;48.804;9.220;2023-02-11T03:56:37;41.67;;;24.75;;
12441;SDS011;6285;48.804;9.220;2023-02-11T03:59:06;39.97;;;25.63;;
12441;SDS011;6285;48.804;9.220;2023-02-11T04:01:33;41.83;;;24.80;;
12441;SDS011;6285;48.804;9.220;2023-02-11T04:04:00;38.03;;;24.77;;
12441;SDS011;6285;48.804;9.220;2023-02-11T04:06:29;39.58;;;24.65;;
12441;SDS011;6285;48.804;9.220;2023-02-11T04:08:56;40.30;;;24.40;;
12441;SDS011;6285;48.804;9.220;2023-02-11T04:11:23;37.15;;;23.73;;
12441;SDS011;6285;48.804;9.220;2023-02-11T04:13:50;40.28;;;25.02;;
12441;SDS011;6285;48.804;9.220;2023-02-11T04:16:17;39.08;;;25.23;;
12441;SDS011;6285;48.804;9.220;2023-02-11T04:18:44;43.20;;;25.20;;
12441;SDS011;6285;48.804;9.220;2023-02-11T04:21:11;37.85;;;25.80;;
12441;SDS011;6285;48.804;9.220;2023-02-11T04:23:39;40.92;;;25.73;;
12441;SDS011;6285;48.804;9.220;2023-02-11T04:26:06;37.20;;;24.73;;
12441;SDS011;6285;48.804;9.220;2023-02-11T04:28:33;43.70;;;25.15;;
12441;SDS011;6285;48.804;9.220;2023-02-11T04:31:00;39.45;;;24.48;;
12441;SDS011;6285;48.804;9.220;2023-02-11T04:33:27;41.55;;;25.85;;
12441;SDS011;6285;48.804;9.220;2023-02-11T04:35:54;41.25;;;25.60;;
12441;SDS011;6285;48.804;9.220;2023-02-11T04:38:22;42.72;;;25.58;;
12441;SDS011;6285;48.804;9.220;2023-02-11T04:40:50;43.00;;;26.40;;
12441;SDS011;6285;48.804;9.220;2023-02-11T04:43:17;40.40;;;25.75;;
12441;SDS011;6285;48.804;9.220;2023-02-11T04:45:44;41.90;;;23.98;;
12441;SDS011;6285;48.804;9.220;2023-02-11T04:48:11;39.92;;;25.83;;
12441;SDS011;6285;48.804;9.220;2023-02-11T04:50:38;38.80;;;24.75;;
12441;SDS011;6285;48.804;9.220;2023-02-11T04:53:05;37.08;;;24.55;;
12441;SDS011;6285;48.804;9.220;2023-02-11T04:55:32;39.25;;;24.13;;
12441;SDS011;6285;48.804;9.220;2023-02-11T04:58:01;40.40;;;24.55;;
12441;SDS011;6285;48.804;9.220;2023-02-11T05:00:28;39.00;;;24.88;;
12441;SDS011;6285;48.804;9.220;2023-02-11T05:02:55;41.63;;;26.15;;
12441;SDS011;6285;48.804;9.220;2023-02-11T05:05:22;38.55;;;25.30;;
12441;SDS011;6285;48.804;9.220;2023-02-11T05:07:49;36.30;;;24.35;;
12441;SDS011;6285;48.804;9.220;2023-02-11T05:10:16;36.25;;;24.40;;
12441;SDS011;6285;48.804;9.220;2023-02-11T05:12:43;37.90;;;24.02;;
12441;SDS011;6285;48.804;9.220;2023-02-11T05:15:12;37.28;;;24.33;;
12441;SDS011;6285;48.804;9.220;2023-02-11T05:17:39;36.40;;;24.15;;
12441;SDS011;6285;48.804;9.220;2023-02-11T05:20:06;39.00;;;24.85;;
12441;SDS011;6285;48.804;9.220;2023-02-11T05:22:33;38.67;;;23.15;;
12441;SDS011;6285;48.804;9.220;2023-02-11T05:25:00;39.75;;;24.90;;
12441;SDS011;6285;48.804;9.220;2023-02-11T05:27:27;36.72;;;23.33;;
12441;SDS011;6285;48.804;9.220;2023-02-11T05:29:54;40.33;;;24.08;;
12441;SDS011;6285;48.804;9.220;2023-02-11T05:32:23;38.97;;;24.35;;
12441;SDS011;6285;48.804;9.220;2023-02-11T05:34:50;38.25;;;23.35;;
12441;SDS011;6285;48.804;9.220;2023-02-11T05:37:17;34.92;;;23.67;;
12441;SDS011;6285;48.804;9.220;2023-02-11T05:39:44;39.10;;;24.40;;
12441;SDS011;6285;48.804;9.220;2023-02-11T05:42:11;34.85;;;24.77;;
12441;SDS011;6285;48.804;9.220;2023-02-11T05:44:38;36.92;;;23.83;;
12441;SDS011;6285;48.804;9.220;2023-02-11T05:47:06;35.00;;;22.95;;
12441;SDS011;6285;48.804;9.220;2023-02-11T05:49:34;39.10;;;23.77;;
12441;SDS011;6285;48.804;9.220;2023-02-11T05:52:01;36.25;;;22.67;;
12441;SDS011;6285;48.804;9.220;2023-02-11T05:54:28;35.30;;;23.55;;
12441;SDS011;6285;48.804;9.220;2023-02-11T05:56:55;32.78;;;22.38;;
12441;SDS011;6285;48.804;9.220;2023-02-11T05:59:22;35.85;;;22.73;;
12441;SDS011;6285;48.804;9.220;2023-02-11T06:01:50;35.47;;;22.73;;
12441;SDS011;6285;48.804;9.220;2023-02-11T06:04:17;36.35;;;23.73;;
12441;SDS011;6285;48.804;9.220;2023-02-11T06:06:45;37.17;;;23.05;;
12441;SDS011;6285;48.804;9.220;2023-02-11T06:09:12;33.75;;;23.42;;
12441;SDS011;6285;48.804;9.220;2023-02-11T06:11:39;36.05;;;23.25;;
12441;SDS011;6285;48.804;9.220;2023-02-11T06:14:06;34.35;;;23.85;;
12441;SDS011;6285;48.804;9.220;2023-02-11T06:16:33;34.80;;;24.00;;
12441;SDS011;6285;48.804;9.220;2023-02-11T06:19:01;34.92;;;24.17;;
12441;SDS011;6285;48.804;9.220;2023-02-11T06:21:28;36.92;;;23.65;;
12441;SDS011;6285;48.804;9.220;2023-02-11T06:23:56;37.88;;;23.55;;
12441;SDS011;6285;48.804;9.220;2023-02-11T06:26:23;37.60;;;24.05;;
12441;SDS011;6285;48.804;9.220;2023-02-11T06:28:50;34.65;;;23.58;;
12441;SDS011;6285;48.804;9.220;2023-02-11T06:31:17;36.92;;;24.70;;
12441;SDS011;6285;48.804;9.220;2023-02-11T06:33:44;35.63;;;23.73;;
12441;SDS011;6285;48.804;9.220;2023-02-11T06:36:13;36.20;;;24.02;;
12441;SDS011;6285;48.804;9.220;2023-02-11T06:38:41;38.63;;;24.15;;
12441;SDS011;6285;48.804;9.220;2023-02-11T06:41:10;33.83;;;23.65;;
12441;SDS011;6285;48.804;9.220;2023-02-11T06:43:37;36.33;;;23.48;;
12441;SDS011;6285;48.804;9.220;2023-02-11T06:46:04;35.35;;;22.90;;
12441;SDS011;6285;48.804;9.220;2023-02-11T06:48:31;40.63;;;23.45;;
12441;SDS011;6285;48.804;9.220;2023-02-11T06:51:00;36.92;;;23.83;;
12441;SDS011;6285;48.804;9.220;2023-02-11T06:53:27;39.33;;;23.88;;
12441;SDS011;6285;48.804;9.220;2023-02-11T06:55:55;39.38;;;24.25;;
12441;SDS011;6285;48.804;9.220;2023-02-11T06:58:23;44.63;;;24.52;;
12441;SDS011;6285;48.804;9.220;2023-02-11T07:00:50;36.35;;;24.15;;
12441;SDS011;6285;48.804;9.220;2023-02-11T07:03:17;39.67;;;24.25;;
12441;SDS011;6285;48.804;9.220;2023-02-11T07:05:44;38.10;;;23.08;;
12441;SDS011;6285;48.804;9.220;2023-02-11T07:08:11;34.85;;;23.58;;
12441;SDS011;6285;48.804;9.220;2023-02-11T07:10:38;39.60;;;23.52;;
12441;SDS011;6285;48.804;9.220;2023-02-11T07:13:05;37.58;;;24.02;;
12441;SDS011;6285;48.804;9.220;2023-02-11T07:15:35;37.78;;;23.90;;
12441;SDS011;6285;48.804;9.220;2023-02-11T07:18:02;37.65;;;22.77;;
12441;SDS011;6285;48.804;9.220;2023-02-11T07:20:29;34.95;;;23.35;;
12441;SDS011;6285;48.804;9.220;2023-02-11T07:22:56;37.53;;;23.55;;
12441;SDS011;6285;48.804;9.220;2023-02-11T07:25:24;39.35;;;24.00;;
12441;SDS011;6285;48.804;9.220;2023-02-11T07:27:50;38.22;;;23.10;;
12441;SDS011;6285;48.804;9.220;2023-02-11T07:30:18;38.38;;;23.35;;
12441;SDS011;6285;48.804;9.220;2023-02-11T07:32:46;36.28;;;22.52;;
12441;SDS011;6285;48.804;9.220;2023-02-11T07:35:13;35.92;;;24.65;;
12441;SDS011;6285;48.804;9.220;2023-02-11T07:37:41;35.58;;;23.00;;
12441;SDS011;6285;48.804;9.220;2023-02-11T07:40:08;37.90;;;23.45;;
12441;SDS011;6285;48.804;9.220;2023-02-11T07:42:35;41.35;;;22.88;;
12441;SDS011;6285;48.804;9.220;2023-02-11T07:45:04;41.47;;;23.90;;
12441;SDS011;6285;48.804;9.220;2023-02-11T07:47:32;39.03;;;23.20;;
12441;SDS011;6285;48.804;9.220;2023-02-11T07:50:01;37.13;;;24.00;;
12441;SDS011;6285;48.804;9.220;2023-02-11T07:52:28;38.08;;;24.08;;
12441;SDS011;6285;48.804;9.220;2023-02-11T07:54:55;37.13;;;23.70;;
12441;SDS011;6285;48.804;9.220;2023-02-11T07:57:22;37.88;;;23.67;;
12441;SDS011;6285;48.804;9.220;2023-02-11T07:59:49;37.50;;;23.95;;
12441;SDS011;6285;48.804;9.220;2023-02-11T08:02:16;34.50;;;22.98;;
12441;SDS011;6285;48.804;9.220;2023-02-11T08:04:44;41.50;;;23.00;;
12441;SDS011;6285;48.804;9.220;2023-02-11T08:07:15;42.47;;;23.42;;
12441;SDS011;6285;48.804;9.220;2023-02-11T08:09:42;38.65;;;25.10;;
12441;SDS011;6285;48.804;9.220;2023-02-11T08:12:09;38.20;;;23.20;;
12441;SDS011;6285;48.804;9.220;2023-02-11T08:14:36;35.38;;;22.85;;
12441;SDS011;6285;48.804;9.220;2023-02-11T08:17:03;35.60;;;23.00;;
12441;SDS011;6285;48.804;9.220;2023-02-11T08:19:30;35.67;;;23.77;;
12441;SDS011;6285;48.804;9.220;2023-02-11T08:21:57;34.50;;;23.30;;
12441;SDS011;6285;48.804;9.220;2023-02-11T08:24:26;38.80;;;24.02;;
12441;SDS011;6285;48.804;9.220;2023-02-11T08:26:53;36.15;;;23.58;;
12441;SDS011;6285;48.804;9.220;2023-02-11T08:29:21;34.03;;;23.55;;
12441;SDS011;6285;48.804;9.220;2023-02-11T08:31:48;36.85;;;23.75;;
12441;SDS011;6285;48.804;9.220;2023-02-11T08:34:15;36.40;;;24.77;;
12441;SDS011;6285;48.804;9.220;2023-02-11T08:36:43;38.40;;;23.73;;
12441;SDS011;6285;48.804;9.220;2023-02-11T08:39:12;32.08;;;21.80;;
12441;SDS011;6285;48.804;9.220;2023-02-11T08:41:41;35.75;;;23.33;;
12441;SDS011;6285;48.804;9.220;2023-02-11T08:44:08;30.52;;;21.67;;
12441;SDS011;6285;48.804;9.220;2023-02-11T08:46:36;31.33;;;21.33;;
12441;SDS011;6285;48.804;9.220;2023-02-11T08:49:03;29.88;;;21.73;;
12441;SDS011;6285;48.804;9.220;2023-02-11T08:51:30;29.65;;;21.55;;
12441;SDS011;6285;48.804;9.220;2023-02-11T08:53:57;33.22;;;22.05;;
12441;SDS011;6285;48.804;9.220;2023-02-11T08:56:24;32.55;;;22.20;;
12441;SDS011;6285;48.804;9.220;2023-02-11T08:58:53;30.05;;;21.90;;
12441;SDS011;6285;48.804;9.220;2023-02-11T09:01:21;30.52;;;21.67;;
12441;SDS011;6285;48.804;9.220;2023-02-11T09:03:49;28.30;;;22.13;;
12441;SDS011;6285;48.804;9.220;2023-02-11T09:06:16;27.92;;;22.58;;
12441;SDS011;6285;48.804;9.220;2023-02-11T09:08:44;29.38;;;23.13;;
12441;SDS011;6285;48.804;9.220;2023-02-11T09:11:13;29.60;;;23.48;;
12441;SDS011;6285;48.804;9.220;2023-02-11T09:13:40;28.60;;;23.63;;
12441;SDS011;6285;48.804;9.220;2023-02-11T09:16:13;31.52;;;23.60;;
12441;SDS011;6285;48.804;9.220;2023-02-11T09:18:41;31.20;;;23.38;;
12441;SDS011;6285;48.804;9.220;2023-02-11T09:21:09;29.38;;;23.58;;
12441;SDS011;6285;48.804;9.220;2023-02-11T09:23:37;30.63;;;23.58;;
12441;SDS011;6285;48.804;9.220;2023-02-11T09:26:08;30.42;;;23.63;;
12441;SDS011;6285;48.804;9.220;2023-02-11T09:28:35;28.25;;;22.83;;
12441;SDS011;6285;48.804;9.220;2023-02-11T09:31:03;29.88;;;23.20;;
12441;SDS011;6285;48.804;9.220;2023-02-11T09:33:32;31.05;;;23.02;;
12441;SDS011;6285;48.804;9.220;2023-02-11T09:35:59;27.75;;;22.90;;
12441;SDS011;6285;48.804;9.220;2023-02-11T09:38:27;31.48;;;23.05;;
12441;SDS011;6285;48.804;9.220;2023-02-11T09:40:54;28.90;;;22.40;;
12441;SDS011;6285;48.804;9.220;2023-02-11T09:43:21;28.98;;;23.58;;
12441;SDS011;6285;48.804;9.220;2023-02-11T09:45:49;30.60;;;23.13;;
12441;SDS011;6285;48.804;9.220;2023-02-11T09:48:16;28.63;;;22.95;;
12441;SDS011;6285;48.804;9.220;2023-02-11T09:50:46;30.10;;;23.70;;
12441;SDS011;6285;48.804;9.220;2023-02-11T09:53:15;27.52;;;22.15;;
12441;SDS011;6285;48.804;9.220;2023-02-11T09:55:44;27.42;;;22.17;;
12441;SDS011;6285;48.804;9.220;2023-02-11T09:58:12;26.92;;;22.83;;
12441;SDS011;6285;48.804;9.220;2023-02-11T10:00:42;27.80;;;23.02;;
12441;SDS011;6285;48.804;9.220;2023-02-11T10:03:14;28.02;;;22.60;;
12441;SDS011;6285;48.804;9.220;2023-02-11T10:05:49;26.42;;;22.02;;
12441;SDS011;6285;48.804;9.220;2023-02-11T10:08:25;28.25;;;23.10;;
12441;SDS011;6285;48.804;9.220;2023-02-11T10:10:54;25.55;;;21.85;;
12441;SDS011;6285;48.804;9.220;2023-02-11T10:13:36;25.38;;;21.60;;
12441;SDS011;6285;48.804;9.220;2023-02-11T10:16:08;28.05;;;22.60;;
12441;SDS011;6285;48.804;9.220;2023-02-11T10:18:45;28.15;;;22.92;;
12441;SDS011;6285;48.804;9.220;2023-02-11T10:21:24;25.45;;;21.42;;
12441;SDS011;6285;48.804;9.220;2023-02-11T10:23:58;24.38;;;21.77;;
12441;SDS011;6285;48.804;9.220;2023-02-11T10:26:28;25.63;;;21.38;;
12441;SDS011;6285;48.804;9.220;2023-02-11T10:28:58;25.42;;;20.52;;
12441;SDS011;6285;48.804;9.220;2023-02-11T10:31:26;25.50;;;20.33;;
12441;SDS011;6285;48.804;9.220;2023-02-11T10:33:55;24.52;;;21.70;;
12441;SDS011;6285;48.804;9.220;2023-02-11T10:36:27;30.00;;;23.67;;
12441;SDS011;6285;48.804;9.220;2023-02-11T10:38:54;26.33;;;21.88;;
12441;SDS011;6285;48.804;9.220;2023-02-11T10:41:23;26.60;;;20.48;;
12441;SDS011;6285;48.804;9.220;2023-02-11T10:43:51;25.55;;;20.80;;
12441;SDS011;6285;48.804;9.220;2023-02-11T10:46:20;23.88;;;21.27;;
12441;SDS011;6285;48.804;9.220;2023-02-11T10:48:48;24.13;;;20.00;;
12441;SDS011;6285;48.804;9.220;2023-02-11T10:51:18;24.77;;;20.48;;
12441;SDS011;6285;48.804;9.220;2023-02-11T10:53:47;21.85;;;19.63;;
12441;SDS011;6285;48.804;9.220;2023-02-11T10:56:19;24.40;;;19.95;;
12441;SDS011;6285;48.804;9.220;2023-02-11T10:58:53;22.13;;;19.80;;
12441;SDS011;6285;48.804;9.220;2023-02-11T11:01:22;20.77;;;18.58;;
12441;SDS011;6285;48.804;9.220;2023-02-11T11:03:50;20.48;;;18.33;;
12441;SDS011;6285;48.804;9.220;2023-02-11T11:06:26;21.00;;;17.90;;
12441;SDS011;6285;48.804;9.220;2023-02-11T11:08:56;22.85;;;18.45;;
12441;SDS011;6285;48.804;9.220;2023-02-11T11:11:24;22.40;;;17.92;;
12441;SDS011;6285;48.804;9.220;2023-02-11T11:13:58;22.83;;;17.70;;
12441;SDS011;6285;48.804;9.220;2023-02-11T11:16:27;18.38;;;16.40;;
12441;SDS011;6285;48.804;9.220;2023-02-11T11:19:13;16.05;;;14.25;;
12441;SDS011;6285;48.804;9.220;2023-02-11T11:21:45;20.58;;;15.88;;
12441;SDS011;6285;48.804;9.220;2023-02-11T11:24:16;17.65;;;14.52;;
12441;SDS011;6285;48.804;9.220;2023-02-11T11:26:45;17.92;;;14.93;;
12441;SDS011;6285;48.804;9.220;2023-02-11T11:29:14;15.50;;;13.52;;
12441;SDS011;6285;48.804;9.220;2023-02-11T11:31:46;17.65;;;13.65;;
12441;SDS011;6285;48.804;9.220;2023-02-11T11:34:19;17.40;;;14.15;;
12441;SDS011;6285;48.804;9.220;2023-02-11T11:36:46;18.08;;;12.43;;
12441;SDS011;6285;48.804;9.220;2023-02-11T11:39:17;16.80;;;13.02;;
12441;SDS011;6285;48.804;9.220;2023-02-11T11:41:49;15.77;;;12.02;;
12441;SDS011;6285;48.804;9.220;2023-02-11T11:44:20;17.25;;;13.48;;
12441;SDS011;6285;48.804;9.220;2023-02-11T11:46:51;18.45;;;12.98;;
12441;SDS011;6285;48.804;9.220;2023-02-11T11:49:22;24.23;;;13.68;;
12441;SDS011;6285;48.804;9.220;2023-02-11T11:51:55;15.05;;;11.40;;
12441;SDS011;6285;48.804;9.220;2023-02-11T11:54:24;17.38;;;12.00;;
12441;SDS011;6285;48.804;9.220;2023-02-11T11:56:55;14.05;;;10.85;;
12441;SDS011;6285;48.804;9.220;2023-02-11T11:59:24;17.75;;;11.73;;
12441;SDS011;6285;48.804;9.220;2023-02-11T12:01:56;13.43;;;11.25;;
12441;SDS011;6285;48.804;9.220;2023-02-11T12:04:30;15.88;;;11.05;;
12441;SDS011;6285;48.804;9.220;2023-02-11T12:07:04;15.10;;;10.55;;
12441;SDS011;6285;48.804;9.220;2023-02-11T12:09:36;13.75;;;9.57;;
12441;SDS011;6285;48.804;9.220;2023-02-11T12:12:15;11.75;;;9.05;;
12441;SDS011;6285;48.804;9.220;2023-02-11T12:14:47;14.23;;;9.32;;
12441;SDS011;6285;48.804;9.220;2023-02-11T12:17:18;12.15;;;8.50;;
12441;SDS011;6285;48.804;9.220;2023-02-11T12:19:58;12.50;;;7.70;;
12441;SDS011;6285;48.804;9.220;2023-02-11T12:22:40;11.35;;;8.05;;
12441;SDS011;6285;48.804;9.220;2023-02-11T12:25:18;9.60;;;7.32;;
12441;SDS011;6285;48.804;9.220;2023-02-11T12:27:48;12.60;;;7.78;;
12441;SDS011;6285;48.804;9.220;2023-02-11T12:30:26;10.73;;;7.80;;
12441;SDS011;6285;48.804;9.220;2023-02-11T12:32:56;12.45;;;7.55;;
12441;SDS011;6285;48.804;9.220;2023-02-11T12:35:28;9.27;;;7.30;;
12441;SDS011;6285;48.804;9.220;2023-02-11T12:38:06;8.70;;;7.30;;
12441;SDS011;6285;48.804;9.220;2023-02-11T12:40:42;12.48;;;8.35;;
12441;SDS011;6285;48.804;9.220;2023-02-11T12:43:13;14.27;;;8.20;;
12441;SDS011;6285;48.804;9.220;2023-02-11T12:48:31;12.73;;;8.50;;
12441;SDS011;6285;48.804;9.220;2023-02-11T12:51:00;11.15;;;8.07;;
12441;SDS011;6285;48.804;9.220;2023-02-11T12:53:37;11.07;;;8.10;;
12441;SDS011;6285;48.804;9.220;2023-02-11T12:56:11;11.05;;;8.32;;
12441;SDS011;6285;48.804;9.220;2023-02-11T12:58:39;14.40;;;7.72;;
12441;SDS011;6285;48.804;9.220;2023-02-11T13:01:09;11.68;;;7.50;;
12441;SDS011;6285;48.804;9.220;2023-02-11T13:03:41;10.77;;;7.55;;
12441;SDS011;6285;48.804;9.220;2023-02-11T13:06:12;11.20;;;8.45;;
12441;SDS011;6285;48.804;9.220;2023-02-11T13:08:42;10.75;;;8.13;;
12441;SDS011;6285;48.804;9.220;2023-02-11T13:11:14;14.05;;;9.32;;
12441;SDS011;6285;48.804;9.220;2023-02-11T13:13:46;13.70;;;9.07;;
12441;SDS011;6285;48.804;9.220;2023-02-11T13:16:16;18.13;;;10.60;;
12441;SDS011;6285;48.804;9.220;2023-02-11T13:18:47;15.70;;;11.60;;
12441;SDS011;6285;48.804;9.220;2023-02-11T13:24:01;16.95;;;12.25;;
12441;SDS011;6285;48.804;9.220;2023-02-11T13:26:38;16.75;;;12.10;;
12441;SDS011;6285;48.804;9.220;2023-02-11T13:29:15;17.88;;;12.88;;
12441;SDS011;6285;48.804;9.220;2023-02-11T13:31:53;19.90;;;13.30;;
12441;SDS011;6285;48.804;9.220;2023-02-11T13:34:25;21.42;;;14.20;;
12441;SDS011;6285;48.804;9.220;2023-02-11T13:37:17;21.70;;;14.48;;
12441;SDS011;6285;48.804;9.220;2023-02-11T13:39:54;19.55;;;14.13;;
12441;SDS011;6285;48.804;9.220;2023-02-11T13:42:22;23.30;;;13.18;;
12441;SDS011;6285;48.804;9.220;2023-02-11T13:44:49;20.10;;;14.90;;
12441;SDS011;6285;48.804;9.220;2023-02-11T13:47:21;23.95;;;15.52;;
12441;SDS011;6285;48.804;9.220;2023-02-11T13:49:53;18.77;;;14.45;;
12441;SDS011;6285;48.804;9.220;2023-02-11T13:52:21;18.40;;;13.25;;
12441;SDS011;6285;48.804;9.220;2023-02-11T13:54:51;18.52;;;14.27;;
12441;SDS011;6285;48.804;9.220;2023-02-11T13:57:30;18.67;;;13.60;;
12441;SDS011;6285;48.804;9.220;2023-02-11T13:59:58;20.70;;;14.73;;
12441;SDS011;6285;48.804;9.220;2023-02-11T14:02:27;22.85;;;15.40;;
12441;SDS011;6285;48.804;9.220;2023-02-11T14:05:20;20.08;;;14.43;;
12441;SDS011;6285;48.804;9.220;2023-02-11T14:08:13;19.80;;;15.23;;
12441;SDS011;6285;48.804;9.220;2023-02-11T14:10:58;21.00;;;14.40;;
12441;SDS011;6285;48.804;9.220;2023-02-11T14:13:28;17.50;;;13.65;;
12441;SDS011;6285;48.804;9.220;2023-02-11T14:16:02;21.40;;;15.40;;
12441;SDS011;6285;48.804;9.220;2023-02-11T14:18:38;21.55;;;14.32;;
12441;SDS011;6285;48.804;9.220;2023-02-11T14:21:09;21.83;;;15.25;;
12441;SDS011;6285;48.804;9.220;2023-02-11T14:23:38;20.00;;;14.73;;
12441;SDS011;6285;48.804;9.220;2023-02-11T14:26:15;17.75;;;14.45;;
12441;SDS011;6285;48.804;9.220;2023-02-11T14:29:00;19.17;;;14.32;;
12441;SDS011;6285;48.804;9.220;2023-02-11T14:31:29;20.65;;;14.45;;
12441;SDS011;6285;48.804;9.220;2023-02-11T14:34:13;19.80;;;14.15;;
12441;SDS011;6285;48.804;9.220;2023-02-11T14:36:44;23.15;;;14.25;;
12441;SDS011;6285;48.804;9.220;2023-02-11T14:39:15;17.27;;;14.15;;
12441;SDS011;6285;48.804;9.220;2023-02-11T14:41:44;18.40;;;13.73;;
12441;SDS011;6285;48.804;9.220;2023-02-11T14:44:16;18.58;;;13.82;;
12441;SDS011;6285;48.804;9.220;2023-02-11T14:46:45;19.13;;;11.77;;
12441;SDS011;6285;48.804;9.220;2023-02-11T14:49:15;16.33;;;12.18;;
12441;SDS011;6285;48.804;9.220;2023-02-11T14:51:45;17.42;;;12.60;;
12441;SDS011;6285;48.804;9.220;2023-02-11T14:54:14;20.20;;;14.32;;
12441;SDS011;6285;48.804;9.220;2023-02-11T14:56:45;16.63;;;13.40;;